createdAt,value
2019-05-30T00:00:37.085Z,1.80
2019-05-30T00:02:43.753Z,1.60
2019-05-30T00:04:50.306Z,1.50
2019-05-30T00:06:56.991Z,1.47
2019-05-30T00:09:07.872Z,1.50
2019-05-30T00:11:14.437Z,1.35
2019-05-30T00:13:21.141Z,1.30
2019-05-30T00:15:27.713Z,1.55
2019-05-30T00:17:34.198Z,1.30
2019-05-30T00:19:40.668Z,1.12
2019-05-30T00:21:47.156Z,1.27
2019-05-30T00:23:53.540Z,1.30
2019-05-30T00:26:01.276Z,1.47
2019-05-30T00:28:08.864Z,2.35
2019-05-30T00:30:24.486Z,1.52
2019-05-30T00:32:25.343Z,1.35
2019-05-30T00:34:31.951Z,1.62
2019-05-30T00:36:38.597Z,1.67
2019-05-30T00:38:46.133Z,2.00
2019-05-30T00:40:52.670Z,1.70
2019-05-30T00:43:00.193Z,1.60
2019-05-30T00:45:19.806Z,1.77
2019-05-30T00:47:16.436Z,1.85
2019-05-30T00:49:22.919Z,1.65
2019-05-30T00:51:29.393Z,1.80
2019-05-30T00:53:35.920Z,1.75
2019-05-30T00:55:42.398Z,1.47
2019-05-30T00:57:49.989Z,1.80
2019-05-30T00:59:56.819Z,1.62
2019-05-30T01:02:03.403Z,1.60
2019-05-30T01:04:09.927Z,1.77
2019-05-30T01:06:16.478Z,2.05
2019-05-30T01:08:22.930Z,2.05
2019-05-30T01:10:29.540Z,1.60
2019-05-30T01:12:36.106Z,1.80
2019-05-30T01:14:42.855Z,1.80
2019-05-30T01:16:49.294Z,1.67
2019-05-30T01:18:56.925Z,1.87
2019-05-30T01:21:03.894Z,1.90
2019-05-30T01:23:10.382Z,1.98
2019-05-30T01:25:17.120Z,1.85
2019-05-30T01:27:23.516Z,1.90
2019-05-30T01:29:29.900Z,1.35
2019-05-30T01:31:36.458Z,1.47
2019-05-30T01:33:42.996Z,1.98
2019-05-30T01:35:49.479Z,1.90
2019-05-30T01:37:55.875Z,1.70
2019-05-30T01:40:02.353Z,2.00
2019-05-30T01:42:09.980Z,1.70
2019-05-30T01:44:16.452Z,1.85
2019-05-30T01:46:22.906Z,1.47
2019-05-30T01:48:29.366Z,1.62
2019-05-30T01:50:35.918Z,1.60
2019-05-30T01:52:42.437Z,1.75
2019-05-30T01:54:49.985Z,1.80
2019-05-30T01:56:56.384Z,1.60
2019-05-30T01:59:02.922Z,1.57
2019-05-30T02:01:22.364Z,1.52
2019-05-30T02:03:17.680Z,1.50
2019-05-30T02:05:25.267Z,1.85
2019-05-30T02:07:31.757Z,1.75
2019-05-30T02:09:38.345Z,1.67
2019-05-30T02:11:44.869Z,1.80
2019-05-30T02:13:51.277Z,2.00
2019-05-30T02:15:57.729Z,1.80
2019-05-30T02:18:05.617Z,1.90
2019-05-30T02:20:12.971Z,1.60
2019-05-30T02:22:19.414Z,2.02
2019-05-30T02:24:25.835Z,1.72
2019-05-30T02:26:32.228Z,1.57
2019-05-30T02:28:38.724Z,1.72
2019-05-30T02:30:45.101Z,1.60
2019-05-30T02:32:51.550Z,1.85
2019-05-30T02:34:58.007Z,2.95
2019-05-30T02:37:06.094Z,3.00
2019-05-30T02:39:12.942Z,3.98
2019-05-30T02:41:19.704Z,4.30
2019-05-30T02:43:26.217Z,5.53
2019-05-30T02:45:32.773Z,3.77
2019-05-30T02:47:39.178Z,3.70
2019-05-30T02:49:45.683Z,3.02
2019-05-30T02:51:52.310Z,3.60
2019-05-30T02:53:58.863Z,3.08
2019-05-30T02:56:05.998Z,2.55
2019-05-30T02:58:14.018Z,2.20
2019-05-30T03:00:25.088Z,1.92
2019-05-30T03:02:31.561Z,2.02
2019-05-30T03:04:38.005Z,2.05
2019-05-30T03:06:44.827Z,1.82
2019-05-30T03:08:51.366Z,1.90
2019-05-30T03:10:57.953Z,1.90
2019-05-30T03:13:06.299Z,1.95
2019-05-30T03:15:15.517Z,1.75
2019-05-30T03:17:22.607Z,1.70
2019-05-30T03:19:29.159Z,1.60
2019-05-30T03:21:35.687Z,2.33
2019-05-30T03:23:42.292Z,1.80
2019-05-30T03:25:48.882Z,1.92
2019-05-30T03:27:55.424Z,2.10
2019-05-30T03:30:05.102Z,2.25
2019-05-30T03:32:51.423Z,2.20
2019-05-30T03:34:27.588Z,1.50
2019-05-30T03:36:31.365Z,1.80
2019-05-30T03:38:36.489Z,1.80
2019-05-30T03:40:43.194Z,1.77
2019-05-30T03:42:49.987Z,2.02
2019-05-30T03:44:56.518Z,1.80
2019-05-30T03:47:08.631Z,1.60
2019-05-30T03:49:19.787Z,1.67
2019-05-30T03:51:28.786Z,1.80
2019-05-30T03:53:35.827Z,1.60
2019-05-30T03:55:46.818Z,2.20
2019-05-30T03:58:10.028Z,1.50
2019-05-30T04:00:42.434Z,2.02
2019-05-30T04:02:59.043Z,1.90
2019-05-30T04:05:14.197Z,1.50
2019-05-30T04:07:24.339Z,1.82
2019-05-30T04:09:34.295Z,1.60
2019-05-30T04:12:03.129Z,1.67
2019-05-30T04:14:15.680Z,1.87
2019-05-30T04:16:22.039Z,1.87
2019-05-30T04:18:28.504Z,1.90
2019-05-30T04:20:37.224Z,2.10
2019-05-30T04:22:43.627Z,1.87
2019-05-30T04:24:50.626Z,1.80
2019-05-30T04:26:57.040Z,1.60
2019-05-30T04:29:03.574Z,2.00
2019-05-30T04:31:10.143Z,1.70
2019-05-30T04:33:29.106Z,1.90
2019-05-30T04:35:24.856Z,1.80
2019-05-30T04:37:31.311Z,1.72
2019-05-30T04:39:37.784Z,1.80
2019-05-30T04:41:44.365Z,1.80
2019-05-30T04:43:50.796Z,1.40
2019-05-30T04:45:57.190Z,1.85
2019-05-30T04:48:03.728Z,1.60
2019-05-30T04:50:12.098Z,1.52
2019-05-30T04:52:23.990Z,1.77
2019-05-30T04:54:26.869Z,1.62
2019-05-30T04:56:33.271Z,1.90
2019-05-30T04:58:42.340Z,3.00
2019-05-30T05:00:48.058Z,2.20
2019-05-30T05:02:54.449Z,3.22
2019-05-30T05:05:00.865Z,3.77
2019-05-30T05:07:07.470Z,10.80
2019-05-30T05:09:14.074Z,5.05
2019-05-30T05:11:24.931Z,1.95
2019-05-30T05:13:29.379Z,2.60
2019-05-30T05:15:35.829Z,1.98
2019-05-30T05:17:42.333Z,6.75
2019-05-30T05:19:48.785Z,2.67
2019-05-30T05:21:55.200Z,1.75
2019-05-30T05:24:01.991Z,1.80
2019-05-30T05:26:08.436Z,1.77
2019-05-30T05:28:15.783Z,1.85
2019-05-30T05:30:22.799Z,2.10
2019-05-30T05:32:29.228Z,1.90
2019-05-30T05:34:35.694Z,2.00
2019-05-30T05:36:42.080Z,2.30
2019-05-30T05:38:48.576Z,1.80
2019-05-30T05:40:55.110Z,3.55
2019-05-30T05:43:01.574Z,4.72
2019-05-30T05:45:09.707Z,3.20
2019-05-30T05:47:18.488Z,1.60
2019-05-30T05:51:31.797Z,2.17
2019-05-30T05:53:38.254Z,2.08
2019-05-30T05:55:44.754Z,2.58
2019-05-30T05:57:51.278Z,1.90
2019-05-30T05:59:57.770Z,2.42
2019-05-30T06:02:04.251Z,3.20
2019-05-30T06:04:13.546Z,2.02
2019-05-30T06:06:19.260Z,1.90
2019-05-30T06:08:25.961Z,1.52
2019-05-30T06:10:32.457Z,2.75
2019-05-30T06:12:38.947Z,2.12
2019-05-30T06:14:45.379Z,2.25
2019-05-30T06:16:53.706Z,1.77
2019-05-30T06:18:59.896Z,1.85
2019-05-30T06:21:06.677Z,1.30
2019-05-30T06:23:13.159Z,1.85
2019-05-30T06:25:24.016Z,2.12
2019-05-30T06:27:28.141Z,2.05
2019-05-30T06:29:34.611Z,1.60
2019-05-30T06:31:41.177Z,1.65
2019-05-30T06:33:47.656Z,2.35
2019-05-30T06:35:54.125Z,1.92
2019-05-30T06:38:00.519Z,1.80
2019-05-30T06:40:08.806Z,1.57
2019-05-30T06:42:15.381Z,2.33
2019-05-30T06:44:21.939Z,2.87
2019-05-30T06:46:28.455Z,2.85
2019-05-30T06:48:35.068Z,4.58
2019-05-30T06:50:41.539Z,3.00
2019-05-30T06:52:48.019Z,1.60
2019-05-30T06:54:54.502Z,1.72
2019-05-30T06:57:01.049Z,1.55
2019-05-30T06:59:07.760Z,2.92
2019-05-30T07:01:14.232Z,2.50
2019-05-30T07:03:22.034Z,1.60
2019-05-30T07:05:30.583Z,1.67
2019-05-30T07:07:37.286Z,1.98
2019-05-30T07:09:44.314Z,3.10
2019-05-30T07:11:50.856Z,2.10
2019-05-30T07:13:57.406Z,2.20
2019-05-30T07:16:03.885Z,3.27
2019-05-30T07:18:10.599Z,2.47
2019-05-30T07:20:19.131Z,1.80
2019-05-30T07:22:25.731Z,1.27
2019-05-30T07:24:32.281Z,3.45
2019-05-30T07:26:38.709Z,1.65
2019-05-30T07:28:45.142Z,1.90
2019-05-30T07:30:51.622Z,1.80
2019-05-30T07:32:58.024Z,2.02
2019-05-30T07:35:07.545Z,2.98
2019-05-30T07:37:14.283Z,1.90
2019-05-30T07:39:20.814Z,2.87
2019-05-30T07:41:27.568Z,2.37
2019-05-30T07:43:35.357Z,3.47
2019-05-30T07:45:45.610Z,1.95
2019-05-30T07:47:50.065Z,2.40
2019-05-30T07:49:56.520Z,3.17
2019-05-30T07:52:02.957Z,2.40
2019-05-30T07:54:09.554Z,2.50
2019-05-30T07:56:15.993Z,2.02
2019-05-30T07:58:22.541Z,1.98
2019-05-30T08:00:29.368Z,2.20
2019-05-30T08:02:35.969Z,2.33
2019-05-30T08:04:42.372Z,1.90
2019-05-30T08:06:48.783Z,2.98
2019-05-30T08:08:55.312Z,1.90
2019-05-30T08:11:09.511Z,2.00
2019-05-30T08:13:09.872Z,1.80
2019-05-30T08:15:16.891Z,1.90
2019-05-30T08:17:23.309Z,1.85
2019-05-30T08:19:29.770Z,1.65
2019-05-30T08:21:38.308Z,2.43
2019-05-30T08:23:44.786Z,2.10
2019-05-30T08:25:51.283Z,1.80
2019-05-30T08:27:57.704Z,1.70
2019-05-30T08:30:10.281Z,1.80
2019-05-30T08:32:16.886Z,2.22
2019-05-30T08:34:23.346Z,2.30
2019-05-30T08:36:30.863Z,2.20
2019-05-30T08:38:37.466Z,1.60
2019-05-30T08:40:44.000Z,1.90
2019-05-30T08:42:50.405Z,1.95
2019-05-30T08:44:56.861Z,2.10
2019-05-30T08:47:03.278Z,2.05
2019-05-30T08:49:09.717Z,2.17
2019-05-30T08:51:16.177Z,2.35
2019-05-30T08:53:22.648Z,1.67
2019-05-30T08:55:30.213Z,2.10
2019-05-30T08:57:36.840Z,2.02
2019-05-30T08:59:44.844Z,2.35
2019-05-30T09:01:53.299Z,2.35
2019-05-30T09:04:00.086Z,2.67
2019-05-30T09:06:06.620Z,2.10
2019-05-30T09:08:13.316Z,4.10
2019-05-30T09:10:19.933Z,2.50
2019-05-30T09:12:26.504Z,2.20
2019-05-30T09:14:33.105Z,1.60
2019-05-30T09:16:39.742Z,2.30
2019-05-30T09:18:47.454Z,2.00
2019-05-30T09:20:54.085Z,1.75
2019-05-30T09:23:00.473Z,1.90
2019-05-30T09:25:13.187Z,2.15
2019-05-30T09:27:19.712Z,1.80
2019-05-30T09:29:26.366Z,1.72
2019-05-30T09:31:32.920Z,3.30
2019-05-30T09:33:40.840Z,3.02
2019-05-30T09:35:47.506Z,1.65
2019-05-30T09:37:54.286Z,1.90
2019-05-30T09:40:00.940Z,1.70
2019-05-30T09:42:08.603Z,1.72
2019-05-30T09:44:15.096Z,1.95
2019-05-30T09:46:23.299Z,1.50
2019-05-30T09:48:30.411Z,1.82
2019-05-30T09:50:36.961Z,1.70
2019-05-30T09:52:44.021Z,1.40
2019-05-30T09:54:52.600Z,1.72
2019-05-30T09:56:59.148Z,1.77
2019-05-30T09:59:05.853Z,1.70
2019-05-30T10:01:12.517Z,2.20
2019-05-30T10:03:19.154Z,1.95
2019-05-30T10:05:26.559Z,1.80
2019-05-30T10:07:33.177Z,1.80
2019-05-30T10:09:39.656Z,1.60
2019-05-30T10:11:47.202Z,1.42
2019-05-30T10:13:53.989Z,1.67
2019-05-30T10:16:00.455Z,1.70
2019-05-30T10:18:07.064Z,1.70
2019-05-30T10:20:14.572Z,1.40
2019-05-30T10:22:21.018Z,1.20
2019-05-30T10:24:28.328Z,1.65
2019-05-30T10:26:34.828Z,2.00
2019-05-30T10:28:41.357Z,2.22
2019-05-30T10:30:53.414Z,1.57
2019-05-30T10:32:56.140Z,1.90
2019-05-30T10:35:02.796Z,1.17
2019-05-30T10:37:09.341Z,1.40
2019-05-30T10:39:15.807Z,1.90
2019-05-30T10:41:22.277Z,3.02
2019-05-30T10:43:29.684Z,1.25
2019-05-30T10:45:38.636Z,1.30
2019-05-30T10:47:45.791Z,1.40
2019-05-30T10:49:53.536Z,1.50
2019-05-30T10:52:00.274Z,1.45
2019-05-30T10:54:06.824Z,2.08
2019-05-30T10:56:13.308Z,1.50
2019-05-30T10:58:19.953Z,2.05
2019-05-30T11:00:47.266Z,1.25
2019-05-30T11:02:55.000Z,1.40
2019-05-30T11:05:01.685Z,1.80
2019-05-30T11:07:33.869Z,1.70
2019-05-30T11:09:48.703Z,1.92
2019-05-30T11:11:55.351Z,1.30
2019-05-30T11:14:01.942Z,2.67
2019-05-30T11:16:08.561Z,1.47
2019-05-30T11:18:15.247Z,2.22
2019-05-30T11:20:22.678Z,2.35
2019-05-30T11:22:29.360Z,1.82
2019-05-30T11:24:36.030Z,1.50
2019-05-30T11:26:42.571Z,1.70
2019-05-30T11:28:50.443Z,1.40
2019-05-30T11:30:57.158Z,1.42
2019-05-30T11:33:03.699Z,1.65
2019-05-30T11:35:10.537Z,1.50
2019-05-30T11:37:18.754Z,1.02
2019-05-30T11:39:25.160Z,1.37
2019-05-30T11:41:31.596Z,2.05
2019-05-30T11:43:37.995Z,1.40
2019-05-30T11:45:44.564Z,2.00
2019-05-30T11:47:51.748Z,1.40
2019-05-30T11:50:00.357Z,1.30
2019-05-30T11:52:08.266Z,1.37
2019-05-30T11:54:14.677Z,1.37
2019-05-30T11:56:21.164Z,1.77
2019-05-30T11:58:27.637Z,1.52
2019-05-30T12:00:34.438Z,1.98
2019-05-30T12:02:40.839Z,1.60
2019-05-30T12:04:47.353Z,1.00
2019-05-30T12:06:54.677Z,0.90
2019-05-30T12:09:01.349Z,0.90
2019-05-30T12:11:09.741Z,1.15
2019-05-30T12:13:16.140Z,1.50
2019-05-30T12:15:24.254Z,1.17
2019-05-30T12:17:30.779Z,1.22
2019-05-30T12:19:38.392Z,1.50
2019-05-30T12:21:44.876Z,1.00
2019-05-30T12:23:54.280Z,1.40
2019-05-30T12:26:00.710Z,1.20
2019-05-30T12:28:07.872Z,1.40
2019-05-30T12:30:15.767Z,1.25
2019-05-30T12:32:22.156Z,1.12
2019-05-30T12:34:28.545Z,1.40
2019-05-30T12:36:35.087Z,1.10
2019-05-30T12:38:41.547Z,1.80
2019-05-30T12:40:48.022Z,1.10
2019-05-30T12:42:57.645Z,1.30
2019-05-30T12:45:07.038Z,1.25
2019-05-30T12:47:12.153Z,1.00
2019-05-30T12:49:18.627Z,1.10
2019-05-30T12:51:25.161Z,1.15
2019-05-30T12:53:31.575Z,1.30
2019-05-30T12:55:38.174Z,1.10
2019-05-30T12:57:44.770Z,1.02
2019-05-30T12:59:51.310Z,1.30
2019-05-30T13:01:58.958Z,1.07
2019-05-30T13:04:07.360Z,1.40
2019-05-30T13:06:14.082Z,1.35
2019-05-30T13:08:21.961Z,1.25
2019-05-30T13:10:28.962Z,1.12
2019-05-30T13:12:35.625Z,1.22
2019-05-30T13:14:42.090Z,1.37
2019-05-30T13:16:48.681Z,1.02
2019-05-30T13:18:55.910Z,1.42
2019-05-30T13:21:02.573Z,2.50
2019-05-30T13:23:09.205Z,1.42
2019-05-30T13:25:18.251Z,1.35
2019-05-30T13:27:24.864Z,1.40
2019-05-30T13:29:31.334Z,1.20
2019-05-30T13:31:37.836Z,1.40
2019-05-30T13:33:44.324Z,1.55
2019-05-30T13:35:50.807Z,1.45
2019-05-30T13:37:57.567Z,1.50
2019-05-30T13:40:23.608Z,2.00
2019-05-30T13:42:16.770Z,1.10
2019-05-30T13:44:23.237Z,1.20
2019-05-30T13:46:29.734Z,1.22
2019-05-30T13:48:36.190Z,1.45
2019-05-30T13:50:43.481Z,1.00
2019-05-30T13:52:50.090Z,1.30
2019-05-30T13:54:56.556Z,1.07
2019-05-30T13:57:05.808Z,1.00
2019-05-30T13:59:12.606Z,1.25
2019-05-30T14:01:19.223Z,1.30
2019-05-30T14:03:25.758Z,1.00
2019-05-30T14:05:32.365Z,1.00
2019-05-30T14:07:38.977Z,1.10
2019-05-30T14:09:45.468Z,1.15
2019-05-30T14:11:51.878Z,1.20
2019-05-30T14:13:58.407Z,1.52
2019-05-30T14:16:04.948Z,1.32
2019-05-30T14:18:11.432Z,1.30
2019-05-30T14:20:19.345Z,1.50
2019-05-30T14:22:25.931Z,1.27
2019-05-30T14:24:32.476Z,1.65
2019-05-30T14:26:39.012Z,1.30
2019-05-30T14:28:45.592Z,1.50
2019-05-30T14:30:52.095Z,1.15
2019-05-30T14:32:58.725Z,1.30
2019-05-30T14:35:08.465Z,1.37
2019-05-30T14:37:15.112Z,1.30
2019-05-30T14:39:21.796Z,1.82
2019-05-30T14:41:28.230Z,1.40
2019-05-30T14:43:34.680Z,1.37
2019-05-30T14:45:41.223Z,1.02
2019-05-30T14:47:48.602Z,1.42
2019-05-30T14:49:54.994Z,1.80
2019-05-30T14:52:02.698Z,1.70
2019-05-30T14:54:09.143Z,1.25
2019-05-30T14:56:15.610Z,1.50
2019-05-30T14:58:22.080Z,1.50
2019-05-30T15:00:28.620Z,1.57
2019-05-30T15:02:35.093Z,1.30
2019-05-30T15:04:41.591Z,1.50
2019-05-30T15:06:48.048Z,1.32
2019-05-30T15:08:54.695Z,1.35
2019-05-30T15:11:01.200Z,1.47
2019-05-30T15:13:07.617Z,1.85
2019-05-30T15:15:18.457Z,1.80
2019-05-30T15:17:24.666Z,1.42
2019-05-30T15:19:32.660Z,1.67
2019-05-30T15:21:39.152Z,1.67
2019-05-30T15:23:45.608Z,1.47
2019-05-30T15:25:52.251Z,1.50
2019-05-30T15:27:58.651Z,1.40
2019-05-30T15:30:08.405Z,1.22
2019-05-30T15:32:15.089Z,1.50
2019-05-30T15:34:21.616Z,1.65
2019-05-30T15:36:28.162Z,1.40
2019-05-30T15:38:34.636Z,1.52
2019-05-30T15:40:41.133Z,1.35
2019-05-30T15:42:47.744Z,1.35
2019-05-30T15:44:54.206Z,1.90
2019-05-30T15:47:00.631Z,1.47
2019-05-30T15:49:08.083Z,1.65
2019-05-30T15:51:14.876Z,1.75
2019-05-30T15:53:21.490Z,1.62
2019-05-30T15:55:28.009Z,1.42
2019-05-30T15:57:34.426Z,1.52
2019-05-30T15:59:40.822Z,1.42
2019-05-30T16:01:47.266Z,1.50
2019-05-30T16:03:53.803Z,1.77
2019-05-30T16:06:00.272Z,2.30
2019-05-30T16:08:06.868Z,2.10
2019-05-30T16:10:14.873Z,1.30
2019-05-30T16:12:21.511Z,1.47
2019-05-30T16:14:29.303Z,1.50
2019-05-30T16:16:40.203Z,1.25
2019-05-30T16:18:43.800Z,1.60
2019-05-30T16:20:50.293Z,1.30
2019-05-30T16:22:56.893Z,1.10
2019-05-30T16:25:04.351Z,1.70
2019-05-30T16:27:10.921Z,1.62
2019-05-30T16:29:17.694Z,1.52
2019-05-30T16:31:24.393Z,1.30
2019-05-30T16:33:30.811Z,1.30
2019-05-30T16:35:37.486Z,1.52
2019-05-30T16:37:43.937Z,1.32
2019-05-30T16:40:04.527Z,1.45
2019-05-30T16:41:58.512Z,1.70
2019-05-30T16:44:05.054Z,1.42
2019-05-30T16:46:11.594Z,1.70
2019-05-30T16:48:18.386Z,1.87
2019-05-30T16:50:27.051Z,1.60
2019-05-30T16:52:33.590Z,2.90
2019-05-30T16:54:40.140Z,1.60
2019-05-30T16:56:46.844Z,1.70
2019-05-30T16:58:54.957Z,2.00
2019-05-30T17:01:01.453Z,1.82
2019-05-30T17:03:08.091Z,1.85
2019-05-30T17:05:15.832Z,1.70
2019-05-30T17:07:23.416Z,2.30
2019-05-30T17:09:29.928Z,2.30
2019-05-30T17:11:36.599Z,1.98
2019-05-30T17:13:43.072Z,1.80
2019-05-30T17:15:49.536Z,2.20
2019-05-30T17:17:56.022Z,2.02
2019-05-30T17:20:02.499Z,2.22
2019-05-30T17:22:09.000Z,1.80
2019-05-30T17:24:16.871Z,2.27
2019-05-30T17:26:27.408Z,2.35
2019-05-30T17:30:39.760Z,2.42
2019-05-30T17:32:46.224Z,1.85
2019-05-30T17:34:52.729Z,1.92
2019-05-30T17:36:59.189Z,2.17
2019-05-30T17:39:09.110Z,2.17
2019-05-30T17:41:15.567Z,2.05
2019-05-30T17:43:22.938Z,2.20
2019-05-30T17:45:30.670Z,2.65
2019-05-30T17:47:37.145Z,2.58
2019-05-30T17:49:43.603Z,2.50
2019-05-30T17:51:50.114Z,2.75
2019-05-30T17:53:56.497Z,2.60
2019-05-30T17:56:02.964Z,2.52
2019-05-30T17:58:10.419Z,2.22
2019-05-30T18:00:18.000Z,2.40
2019-05-30T18:02:24.486Z,2.60
2019-05-30T18:04:31.133Z,3.08
2019-05-30T18:06:37.593Z,3.67
2019-05-30T18:08:43.990Z,3.12
2019-05-30T18:10:53.686Z,3.02
2019-05-30T18:12:58.638Z,3.30
2019-05-30T18:15:09.449Z,3.40
2019-05-30T18:17:15.925Z,3.58
2019-05-30T18:19:25.185Z,3.50
2019-05-30T18:21:31.907Z,3.80
2019-05-30T18:23:38.334Z,3.60
2019-05-30T18:25:44.837Z,3.60
2019-05-30T18:27:51.241Z,3.15
2019-05-30T18:29:57.705Z,3.67
2019-05-30T18:32:04.175Z,3.42
2019-05-30T18:34:10.944Z,3.27
2019-05-30T18:36:18.451Z,3.62
2019-05-30T18:38:26.376Z,3.10
2019-05-30T18:40:37.243Z,3.07
2019-05-30T18:42:43.759Z,3.77
2019-05-30T18:44:50.324Z,3.55
2019-05-30T18:46:56.902Z,4.65
2019-05-30T18:49:03.482Z,3.62
2019-05-30T18:51:09.943Z,3.02
2019-05-30T18:53:16.392Z,3.37
2019-05-30T18:55:22.865Z,3.27
2019-05-30T18:57:29.299Z,3.70
2019-05-30T18:59:37.287Z,3.67
2019-05-30T19:01:44.224Z,3.62
2019-05-30T19:03:51.622Z,4.00
2019-05-30T19:05:58.095Z,4.00
2019-05-30T19:08:06.089Z,4.08
2019-05-30T19:10:13.689Z,4.90
2019-05-30T19:12:20.118Z,4.22
2019-05-30T19:14:29.735Z,4.15
2019-05-30T19:16:34.749Z,3.83
2019-05-30T19:18:41.385Z,4.15
2019-05-30T19:20:47.980Z,5.10
2019-05-30T19:22:54.429Z,4.10
2019-05-30T19:25:00.916Z,4.33
2019-05-30T19:27:07.459Z,4.45
2019-05-30T19:29:14.114Z,4.75
2019-05-30T19:31:20.850Z,4.90
2019-05-30T19:33:28.730Z,5.00
2019-05-30T19:35:35.479Z,5.83
2019-05-30T19:37:42.035Z,5.80
2019-05-30T19:39:48.513Z,6.50
2019-05-30T19:41:57.407Z,6.78
2019-05-30T19:46:13.195Z,7.03
2019-05-30T19:48:18.886Z,7.53
2019-05-30T19:50:25.427Z,7.12
2019-05-30T19:52:32.624Z,7.90
2019-05-30T19:54:40.212Z,8.00
2019-05-30T19:56:46.686Z,7.78
2019-05-30T19:58:54.067Z,7.83
2019-05-30T20:01:00.513Z,8.20
2019-05-30T20:03:07.180Z,7.92
2019-05-30T20:05:14.012Z,8.85
2019-05-30T20:07:20.547Z,9.08
2019-05-30T20:09:27.099Z,9.60
2019-05-30T20:11:33.568Z,9.15
2019-05-30T20:13:41.298Z,9.75
2019-05-30T20:15:48.035Z,9.45
2019-05-30T20:17:54.489Z,9.98
2019-05-30T20:20:00.971Z,9.80
2019-05-30T20:22:08.770Z,8.83
2019-05-30T20:24:15.332Z,8.93
2019-05-30T20:26:21.856Z,9.20
2019-05-30T20:28:28.327Z,9.55
2019-05-30T20:30:34.972Z,9.65
2019-05-30T20:32:41.906Z,9.40
2019-05-30T20:34:49.727Z,10.55
2019-05-30T20:36:56.628Z,9.58
2019-05-30T20:39:03.551Z,10.10
2019-05-30T20:41:10.105Z,10.45
2019-05-30T20:43:17.484Z,9.98
2019-05-30T20:45:24.801Z,9.50
2019-05-30T20:47:31.377Z,9.00
2019-05-30T20:49:39.081Z,10.00
2019-05-30T20:51:45.643Z,10.20
2019-05-30T20:53:54.749Z,9.75
2019-05-30T20:56:00.637Z,10.20
2019-05-30T20:58:07.119Z,9.13
2019-05-30T21:00:18.159Z,8.85
2019-05-30T21:02:28.980Z,9.25
2019-05-30T21:04:34.652Z,8.83
2019-05-30T21:06:43.023Z,9.00
2019-05-30T21:08:51.736Z,9.07
2019-05-30T21:11:03.213Z,9.23
2019-05-30T21:13:11.230Z,9.23
2019-05-30T21:15:18.178Z,8.93
2019-05-30T21:17:26.864Z,7.42
2019-05-30T21:19:33.437Z,7.92
2019-05-30T21:21:40.229Z,8.35
2019-05-30T21:23:46.917Z,8.85
2019-05-30T21:25:54.852Z,9.10
2019-05-30T21:28:01.307Z,9.18
2019-05-30T21:30:10.486Z,9.28
2019-05-30T21:32:18.065Z,8.83
2019-05-30T21:34:24.592Z,8.65
2019-05-30T21:36:31.070Z,9.93
2019-05-30T21:38:37.864Z,10.28
2019-05-30T21:40:44.613Z,9.10
2019-05-30T21:43:04.651Z,7.97
2019-05-30T21:44:59.361Z,8.50
2019-05-30T21:47:10.221Z,8.65
2019-05-30T21:49:16.770Z,8.73
2019-05-30T21:51:23.314Z,8.40
2019-05-30T21:53:31.026Z,8.80
2019-05-30T21:55:37.512Z,8.95
2019-05-30T21:57:44.080Z,10.13
2019-05-30T21:59:50.841Z,9.60
2019-05-30T22:01:57.811Z,9.40
2019-05-30T22:04:05.400Z,10.50
2019-05-30T22:06:11.971Z,10.15
2019-05-30T22:08:18.515Z,10.78
2019-05-30T22:10:26.319Z,10.00
2019-05-30T22:12:32.895Z,10.10
2019-05-30T22:14:39.354Z,10.78
2019-05-30T22:16:46.035Z,9.30
2019-05-30T22:18:52.664Z,10.95
2019-05-30T22:21:01.064Z,10.35
2019-05-30T22:23:10.779Z,11.22
2019-05-30T22:25:16.027Z,10.00
2019-05-30T22:27:22.555Z,10.28
2019-05-30T22:29:29.052Z,10.38
2019-05-30T22:31:35.793Z,9.48
2019-05-30T22:33:42.667Z,9.20
2019-05-30T22:35:49.351Z,9.43
2019-05-30T22:37:55.765Z,9.53
2019-05-30T22:40:02.346Z,9.78
2019-05-30T22:42:08.927Z,9.13
2019-05-30T22:44:15.343Z,8.43
2019-05-30T22:46:21.887Z,9.03
2019-05-30T22:48:28.497Z,8.23
2019-05-30T22:50:36.112Z,8.80
2019-05-30T22:52:42.713Z,8.78
2019-05-30T22:54:49.208Z,8.70
2019-05-30T22:56:57.015Z,9.40
2019-05-30T22:59:03.726Z,9.53
2019-05-30T23:01:10.157Z,10.23
2019-05-30T23:03:16.661Z,8.78
2019-05-30T23:05:24.313Z,9.90
2019-05-30T23:07:30.801Z,7.75
2019-05-30T23:09:37.348Z,8.70
2019-05-30T23:11:43.954Z,7.78
2019-05-30T23:13:50.531Z,7.87
2019-05-30T23:15:56.998Z,8.18
2019-05-30T23:18:03.533Z,8.85
2019-05-30T23:20:10.776Z,8.15
2019-05-30T23:22:17.314Z,8.43
2019-05-30T23:24:23.878Z,7.03
2019-05-30T23:26:30.556Z,7.95
2019-05-30T23:28:37.117Z,7.20
2019-05-30T23:30:43.695Z,7.92
2019-05-30T23:32:50.520Z,7.33
2019-05-30T23:34:58.674Z,6.50
2019-05-30T23:37:05.371Z,7.55
2019-05-30T23:39:11.807Z,6.75
2019-05-30T23:41:18.280Z,7.00
2019-05-30T23:43:24.706Z,6.50
2019-05-30T23:45:31.255Z,6.60
2019-05-30T23:47:37.805Z,6.87
2019-05-30T23:49:44.208Z,6.87
2019-05-30T23:51:51.863Z,6.25
2019-05-30T23:53:58.688Z,6.28
2019-05-30T23:56:05.239Z,7.25
2019-05-30T23:58:11.710Z,6.75
